createdAt,value
2019-04-14T00:00:49.495Z,3.23
2019-04-14T00:01:48.209Z,3.25
2019-04-14T00:02:49.166Z,3.17
2019-04-14T00:03:48.275Z,3.19
2019-04-14T00:04:48.707Z,3.12
2019-04-14T00:05:48.156Z,3.25
2019-04-14T00:06:48.394Z,3.19
2019-04-14T00:07:48.137Z,3.17
2019-04-14T00:08:48.144Z,3.22
2019-04-14T00:09:48.226Z,3.17
2019-04-14T00:10:48.658Z,3.16
2019-04-14T00:11:48.234Z,3.12
2019-04-14T00:12:49.210Z,3.22
2019-04-14T00:13:48.126Z,3.16
2019-04-14T00:14:49.110Z,3.15
2019-04-14T00:15:50.467Z,3.17
2019-04-14T00:16:49.013Z,3.28
2019-04-14T00:17:48.028Z,3.25
2019-04-14T00:18:49.082Z,3.16
2019-04-14T00:19:48.007Z,3.12
2019-04-14T00:20:49.121Z,3.15
2019-04-14T00:21:48.023Z,3.17
2019-04-14T00:22:49.016Z,3.15
2019-04-14T00:23:47.965Z,3.17
2019-04-14T00:24:48.935Z,3.16
2019-04-14T00:25:47.948Z,3.22
2019-04-14T00:26:48.799Z,3.15
2019-04-14T00:27:47.964Z,3.12
2019-04-14T00:28:49.034Z,3.12
2019-04-14T00:29:48.008Z,3.16
2019-04-14T00:30:49.039Z,3.20
2019-04-14T00:31:50.655Z,3.19
2019-04-14T00:32:48.804Z,3.19
2019-04-14T00:33:47.894Z,3.23
2019-04-14T00:34:48.534Z,3.23
2019-04-14T00:35:47.836Z,3.16
2019-04-14T00:36:48.117Z,3.12
2019-04-14T00:37:48.998Z,3.16
2019-04-14T00:38:47.900Z,3.19
2019-04-14T00:39:48.916Z,3.15
2019-04-14T00:40:47.783Z,3.08
2019-04-14T00:41:53.464Z,3.12
2019-04-14T00:42:49.500Z,3.10
2019-04-14T00:43:48.486Z,3.15
2019-04-14T00:44:47.748Z,3.10
2019-04-14T00:45:52.812Z,3.08
2019-04-14T00:46:49.602Z,3.10
2019-04-14T00:47:55.642Z,3.12
2019-04-14T00:48:49.679Z,3.12
2019-04-14T00:49:48.738Z,3.12
2019-04-14T00:50:47.696Z,3.15
2019-04-14T00:51:48.517Z,3.19
2019-04-14T00:52:48.033Z,3.15
2019-04-14T00:53:47.649Z,3.19
2019-04-14T00:54:47.792Z,3.17
2019-04-14T00:55:48.737Z,3.12
2019-04-14T00:56:47.708Z,3.13
2019-04-14T00:57:48.668Z,3.10
2019-04-14T00:58:47.640Z,3.13
2019-04-14T00:59:48.678Z,3.22
2019-04-14T01:00:47.586Z,3.17
2019-04-14T01:01:48.407Z,3.22
2019-04-14T01:02:47.572Z,3.15
2019-04-14T01:03:48.277Z,3.17
2019-04-14T01:04:47.565Z,3.08
2019-04-14T01:05:48.192Z,3.07
2019-04-14T01:06:47.506Z,3.08
2019-04-14T01:07:48.013Z,3.10
2019-04-14T01:08:47.484Z,3.13
2019-04-14T01:09:48.767Z,3.04
2019-04-14T01:10:47.708Z,3.17
2019-04-14T01:11:48.750Z,3.19
2019-04-14T01:12:47.500Z,3.15
2019-04-14T01:13:48.548Z,3.13
2019-04-14T01:14:47.510Z,3.20
2019-04-14T01:15:57.251Z,3.08
2019-04-14T01:16:49.410Z,3.02
2019-04-14T01:17:48.472Z,3.04
2019-04-14T01:18:47.390Z,3.05
2019-04-14T01:19:48.429Z,3.07
2019-04-14T01:20:47.357Z,3.07
2019-04-14T01:21:48.123Z,3.07
2019-04-14T01:22:47.432Z,3.08
2019-04-14T01:23:48.013Z,3.02
2019-04-14T01:24:47.332Z,3.02
2019-04-14T01:25:47.737Z,3.07
2019-04-14T01:26:48.427Z,2.97
2019-04-14T01:27:47.440Z,3.02
2019-04-14T01:28:48.293Z,2.95
2019-04-14T01:29:47.378Z,2.99
2019-04-14T01:30:48.042Z,2.99
2019-04-14T01:31:47.327Z,3.01
2019-04-14T01:32:47.936Z,2.95
2019-04-14T01:33:47.217Z,2.94
2019-04-14T01:34:47.651Z,2.95
2019-04-14T01:35:47.251Z,2.90
2019-04-14T01:36:47.519Z,2.94
2019-04-14T01:37:47.206Z,2.95
2019-04-14T01:38:47.175Z,2.94
2019-04-14T01:39:48.173Z,2.89
2019-04-14T01:40:47.179Z,2.94
2019-04-14T01:41:47.824Z,2.90
2019-04-14T01:42:48.402Z,2.95
2019-04-14T01:43:47.463Z,2.90
2019-04-14T01:44:48.076Z,3.01
2019-04-14T01:45:59.774Z,2.95
2019-04-14T01:46:48.112Z,2.90
2019-04-14T01:47:47.097Z,2.92
2019-04-14T01:48:47.519Z,2.95
2019-04-14T01:49:47.059Z,2.83
2019-04-14T01:50:47.391Z,2.80
2019-04-14T01:51:47.031Z,2.86
2019-04-14T01:52:47.949Z,2.84
2019-04-14T01:53:47.008Z,2.86
2019-04-14T01:54:47.328Z,2.80
2019-04-14T01:55:46.984Z,2.80
2019-04-14T01:56:47.202Z,2.87
2019-04-14T01:57:48.142Z,2.90
2019-04-14T01:58:46.994Z,2.74
2019-04-14T01:59:48.171Z,2.86
2019-04-14T02:00:46.932Z,2.84
2019-04-14T02:01:47.819Z,2.81
2019-04-14T02:02:46.928Z,2.90
2019-04-14T02:03:47.790Z,2.80
2019-04-14T02:04:46.967Z,2.79
2019-04-14T02:05:47.491Z,2.77
2019-04-14T02:06:46.872Z,2.80
2019-04-14T02:07:47.261Z,2.84
2019-04-14T02:08:47.956Z,2.83
2019-04-14T02:09:46.983Z,2.77
2019-04-14T02:10:47.870Z,2.84
2019-04-14T02:11:46.825Z,2.87
2019-04-14T02:12:47.366Z,2.90
2019-04-14T02:13:46.811Z,2.87
2019-04-14T02:14:47.425Z,2.94
2019-04-14T02:15:46.775Z,2.86
2019-04-14T02:16:52.242Z,2.79
2019-04-14T02:17:48.171Z,2.86
2019-04-14T02:18:47.115Z,2.89
2019-04-14T02:19:48.006Z,2.84
2019-04-14T02:20:46.879Z,2.83
2019-04-14T02:21:47.811Z,2.80
2019-04-14T02:22:46.747Z,2.84
2019-04-14T02:23:47.537Z,2.87
2019-04-14T02:24:46.681Z,2.87
2019-04-14T02:25:47.165Z,2.89
2019-04-14T02:26:47.931Z,2.92
2019-04-14T02:27:47.221Z,2.98
2019-04-14T02:28:46.679Z,2.81
2019-04-14T02:29:47.383Z,2.90
2019-04-14T02:30:57.230Z,2.84
2019-04-14T02:32:17.571Z,2.94
2019-04-14T02:33:18.141Z,2.89
2019-04-14T02:34:17.062Z,2.90
2019-04-14T02:35:26.022Z,2.90
2019-04-14T02:37:26.307Z,2.87
2019-04-14T02:38:24.816Z,2.98
2019-04-14T02:39:24.164Z,2.94
2019-04-14T02:40:21.680Z,2.90
2019-04-14T02:41:18.877Z,2.86
2019-04-14T02:43:27.590Z,2.90
2019-04-14T02:44:23.007Z,2.99
2019-04-14T02:45:19.434Z,2.90
2019-04-14T02:46:11.757Z,2.87
2019-04-14T02:47:47.243Z,3.04
2019-04-14T02:48:33.428Z,2.97
2019-04-14T02:49:16.918Z,2.90
2019-04-14T02:50:12.159Z,2.87
2019-04-14T02:51:29.304Z,2.92
2019-04-14T02:52:11.609Z,2.90
2019-04-14T02:53:18.455Z,2.83
2019-04-14T02:54:20.064Z,2.94
2019-04-14T02:55:08.583Z,2.90
2019-04-14T02:56:15.995Z,2.99
2019-04-14T02:57:16.763Z,2.89
2019-04-14T02:58:20.499Z,2.98
2019-04-14T02:59:14.049Z,3.02
2019-04-14T03:00:19.484Z,2.90
2019-04-14T03:01:27.617Z,2.95
2019-04-14T03:02:30.352Z,2.95
2019-04-14T03:03:16.899Z,2.94
2019-04-14T03:04:16.903Z,2.92
2019-04-14T03:05:13.223Z,2.94
2019-04-14T03:06:12.194Z,2.99
2019-04-14T03:07:16.563Z,2.98
2019-04-14T03:08:16.984Z,2.98
2019-04-14T03:09:19.053Z,2.95
2019-04-14T03:10:17.913Z,2.94
2019-04-14T03:11:13.631Z,2.98
2019-04-14T03:12:14.569Z,2.90
2019-04-14T03:13:15.069Z,2.97
2019-04-14T03:14:15.688Z,3.04
2019-04-14T03:15:13.010Z,3.08
2019-04-14T03:16:13.806Z,3.05
2019-04-14T03:17:21.380Z,3.05
2019-04-14T03:19:18.309Z,2.99
2019-04-14T03:21:15.863Z,3.01
2019-04-14T03:22:23.645Z,2.98
2019-04-14T03:23:19.174Z,2.94
2019-04-14T03:24:09.390Z,2.90
2019-04-14T03:25:03.099Z,2.98
2019-04-14T03:26:15.367Z,2.94
2019-04-14T03:27:13.521Z,3.05
2019-04-14T03:28:12.675Z,3.04
2019-04-14T03:29:19.204Z,3.04
2019-04-14T03:30:34.003Z,3.07
2019-04-14T03:32:32.600Z,2.99
2019-04-14T03:33:32.300Z,2.92
2019-04-14T03:35:35.148Z,2.97
2019-04-14T03:36:44.227Z,3.05
2019-04-14T03:37:43.396Z,3.04
2019-04-14T03:38:18.600Z,3.05
2019-04-14T03:39:31.943Z,3.05
2019-04-14T03:40:12.313Z,3.05
2019-04-14T03:41:17.283Z,3.02
2019-04-14T03:43:22.578Z,2.98
2019-04-14T03:44:28.657Z,3.12
2019-04-14T03:45:17.043Z,3.04
2019-04-14T03:46:19.655Z,3.07
2019-04-14T03:47:17.510Z,3.10
2019-04-14T03:48:42.482Z,3.08
2019-04-14T03:50:17.508Z,3.17
2019-04-14T03:52:19.515Z,3.10
2019-04-14T03:53:15.829Z,3.05
2019-04-14T03:54:20.210Z,3.12
2019-04-14T03:55:04.112Z,3.12
2019-04-14T03:55:54.548Z,3.15
2019-04-14T03:56:46.860Z,3.01
2019-04-14T03:57:45.748Z,3.07
2019-04-14T03:58:46.505Z,3.07
2019-04-14T03:59:45.716Z,3.13
2019-04-14T04:00:46.539Z,3.10
2019-04-14T04:01:45.784Z,3.12
2019-04-14T04:02:46.605Z,3.07
2019-04-14T04:03:45.787Z,3.10
2019-04-14T04:04:46.704Z,3.08
2019-04-14T04:05:45.683Z,3.16
2019-04-14T04:06:46.406Z,3.05
2019-04-14T04:07:45.588Z,3.12
2019-04-14T04:08:46.458Z,3.15
2019-04-14T04:09:45.625Z,3.10
2019-04-14T04:10:46.471Z,3.13
2019-04-14T04:11:45.581Z,3.10
2019-04-14T04:12:46.541Z,3.08
2019-04-14T04:13:45.596Z,3.15
2019-04-14T04:14:46.407Z,3.13
2019-04-14T04:15:45.540Z,3.12
2019-04-14T04:16:46.186Z,3.12
2019-04-14T04:17:45.479Z,3.23
2019-04-14T04:18:56.158Z,3.10
2019-04-14T04:19:47.003Z,3.22
2019-04-14T04:20:45.608Z,3.12
2019-04-14T04:21:46.560Z,3.16
2019-04-14T04:22:45.638Z,3.17
2019-04-14T04:23:45.419Z,3.15
2019-04-14T04:24:45.529Z,3.13
2019-04-14T04:25:46.568Z,3.15
2019-04-14T04:26:45.391Z,3.16
2019-04-14T04:27:46.161Z,3.13
2019-04-14T04:28:45.365Z,3.15
2019-04-14T04:29:46.266Z,3.16
2019-04-14T04:30:45.361Z,3.15
2019-04-14T04:31:46.092Z,3.19
2019-04-14T04:32:45.321Z,3.10
2019-04-14T04:33:45.799Z,3.20
2019-04-14T04:34:45.308Z,3.13
2019-04-14T04:35:45.745Z,3.08
2019-04-14T04:36:46.354Z,3.07
2019-04-14T04:37:45.471Z,3.07
2019-04-14T04:38:46.330Z,2.97
2019-04-14T04:39:45.430Z,2.97
2019-04-14T04:40:46.148Z,2.98
2019-04-14T04:41:45.259Z,2.97
2019-04-14T04:42:45.814Z,2.97
2019-04-14T04:43:45.255Z,2.98
2019-04-14T04:44:46.140Z,2.90
2019-04-14T04:45:45.285Z,2.97
2019-04-14T04:46:45.942Z,2.95
2019-04-14T04:47:45.174Z,2.83
2019-04-14T04:48:58.313Z,2.87
2019-04-14T04:49:46.869Z,2.84
2019-04-14T04:50:45.390Z,2.90
2019-04-14T04:51:46.432Z,2.86
2019-04-14T04:52:45.217Z,2.87
2019-04-14T04:53:46.166Z,2.83
2019-04-14T04:54:45.188Z,2.83
2019-04-14T04:55:46.093Z,2.77
2019-04-14T04:56:45.086Z,2.81
2019-04-14T04:57:46.001Z,2.84
2019-04-14T04:58:45.638Z,2.84
2019-04-14T04:59:45.275Z,2.80
2019-04-14T05:00:48.486Z,2.87
2019-04-14T05:01:47.274Z,2.92
2019-04-14T05:02:46.060Z,2.74
2019-04-14T05:03:45.026Z,2.87
2019-04-14T05:04:45.978Z,2.84
2019-04-14T05:05:45.098Z,2.74
2019-04-14T05:06:45.932Z,2.81
2019-04-14T05:07:44.993Z,2.80
2019-04-14T05:08:45.554Z,2.80
2019-04-14T05:09:45.035Z,2.77
2019-04-14T05:10:45.689Z,2.90
2019-04-14T05:11:44.906Z,2.81
2019-04-14T05:12:45.667Z,2.89
2019-04-14T05:13:44.886Z,2.94
2019-04-14T05:14:45.577Z,2.97
2019-04-14T05:15:44.880Z,2.87
2019-04-14T05:16:46.053Z,2.95
2019-04-14T05:17:45.288Z,2.94
2019-04-14T05:18:46.239Z,2.90
2019-04-14T05:19:45.509Z,2.98
2019-04-14T05:20:44.888Z,2.97
2019-04-14T05:21:45.252Z,3.07
2019-04-14T05:22:44.794Z,2.94
2019-04-14T05:23:45.356Z,2.99
2019-04-14T05:24:44.772Z,3.05
2019-04-14T05:25:45.200Z,3.10
2019-04-14T05:26:45.933Z,3.12
2019-04-14T05:27:45.208Z,3.07
2019-04-14T05:28:45.949Z,3.13
2019-04-14T05:29:45.102Z,3.13
2019-04-14T05:30:45.734Z,3.04
2019-04-14T05:31:44.773Z,3.02
2019-04-14T05:32:45.517Z,3.08
2019-04-14T05:33:44.832Z,3.05
2019-04-14T05:34:45.445Z,3.04
2019-04-14T05:35:44.666Z,3.19
2019-04-14T05:36:45.348Z,3.19
2019-04-14T05:37:44.637Z,3.15
2019-04-14T05:38:45.009Z,3.17
2019-04-14T05:39:44.660Z,3.23
2019-04-14T05:40:45.074Z,3.22
2019-04-14T05:41:57.075Z,3.25
2019-04-14T05:42:45.633Z,3.20
2019-04-14T05:43:50.198Z,3.22
2019-04-14T05:44:45.628Z,3.22
2019-04-14T05:45:45.750Z,3.17
2019-04-14T05:46:44.703Z,3.17
2019-04-14T05:47:45.694Z,3.12
2019-04-14T05:48:44.720Z,3.15
2019-04-14T05:49:48.236Z,3.12
2019-04-14T05:50:45.494Z,3.19
2019-04-14T05:51:45.845Z,3.20
2019-04-14T05:52:44.756Z,3.20
2019-04-14T05:53:45.757Z,3.26
2019-04-14T05:54:44.768Z,3.20
2019-04-14T05:55:44.462Z,3.20
2019-04-14T05:56:44.725Z,3.20
2019-04-14T05:57:44.496Z,3.16
2019-04-14T05:58:44.750Z,3.17
2019-04-14T05:59:44.441Z,3.19
2019-04-14T06:00:44.402Z,3.23
2019-04-14T06:01:44.395Z,3.15
2019-04-14T06:02:44.479Z,3.28
2019-04-14T06:03:45.389Z,3.17
2019-04-14T06:04:44.385Z,3.19
2019-04-14T06:05:45.014Z,3.19
2019-04-14T06:06:44.380Z,3.16
2019-04-14T06:07:44.313Z,3.22
2019-04-14T06:08:44.350Z,3.22
2019-04-14T06:09:44.292Z,3.20
2019-04-14T06:10:44.338Z,3.25
2019-04-14T06:11:44.340Z,3.26
2019-04-14T06:12:44.269Z,3.39
2019-04-14T06:13:44.250Z,3.42
2019-04-14T06:14:44.241Z,3.37
2019-04-14T06:15:44.276Z,3.37
2019-04-14T06:16:44.231Z,3.52
2019-04-14T06:17:44.207Z,3.54
2019-04-14T06:18:44.268Z,3.46
2019-04-14T06:19:44.201Z,3.56
2019-04-14T06:20:44.178Z,3.64
2019-04-14T06:21:44.177Z,3.64
2019-04-14T06:22:44.155Z,3.64
2019-04-14T06:23:44.247Z,3.67
2019-04-14T06:24:44.153Z,3.63
2019-04-14T06:25:44.185Z,3.60
2019-04-14T06:26:44.127Z,3.63
2019-04-14T06:27:44.154Z,3.56
2019-04-14T06:28:44.113Z,3.59
2019-04-14T06:29:44.083Z,3.64
2019-04-14T06:30:44.075Z,3.74
2019-04-14T06:31:44.074Z,3.75
2019-04-14T06:32:44.071Z,3.75
2019-04-14T06:33:44.040Z,3.74
2019-04-14T06:34:44.030Z,3.67
2019-04-14T06:35:44.019Z,3.67
2019-04-14T06:36:44.032Z,3.63
2019-04-14T06:37:43.997Z,3.68
2019-04-14T06:38:44.192Z,3.75
2019-04-14T06:39:43.999Z,3.75
2019-04-14T06:40:43.967Z,3.77
2019-04-14T06:41:43.970Z,3.78
2019-04-14T06:42:43.953Z,3.80
2019-04-14T06:43:49.194Z,3.84
2019-04-14T06:44:45.158Z,3.74
2019-04-14T06:45:43.913Z,3.75
2019-04-14T06:46:43.965Z,3.84
2019-04-14T06:47:43.894Z,3.80
2019-04-14T06:48:43.926Z,3.81
2019-04-14T06:49:49.264Z,3.77
2019-04-14T06:50:46.411Z,3.78
2019-04-14T06:51:43.867Z,3.78
2019-04-14T06:52:43.960Z,3.95
2019-04-14T06:53:43.826Z,3.95
2019-04-14T06:54:43.831Z,3.95
2019-04-14T06:55:43.807Z,4.08
2019-04-14T06:56:43.874Z,4.06
2019-04-14T06:57:43.853Z,4.11
2019-04-14T06:58:43.775Z,4.16
2019-04-14T06:59:43.765Z,4.20
2019-04-14T07:00:43.826Z,4.17
2019-04-14T07:01:43.963Z,4.14
2019-04-14T07:02:45.479Z,4.18
2019-04-14T07:03:43.721Z,4.16
2019-04-14T07:04:43.765Z,4.28
2019-04-14T07:05:43.749Z,4.43
2019-04-14T07:06:43.711Z,4.35
2019-04-14T07:07:43.719Z,4.49
2019-04-14T07:08:43.754Z,4.42
2019-04-14T07:09:43.687Z,4.61
2019-04-14T07:10:43.696Z,4.56
2019-04-14T07:11:43.644Z,4.51
2019-04-14T07:12:43.702Z,4.36
2019-04-14T07:13:47.964Z,4.28
2019-04-14T07:14:43.670Z,4.28
2019-04-14T07:15:43.610Z,4.25
2019-04-14T07:16:43.597Z,4.18
2019-04-14T07:17:43.643Z,4.10
2019-04-14T07:18:43.567Z,4.24
2019-04-14T07:19:43.564Z,4.20
2019-04-14T07:20:43.591Z,4.17
2019-04-14T07:21:43.595Z,4.24
2019-04-14T07:22:43.586Z,4.25
2019-04-14T07:23:43.587Z,4.25
2019-04-14T07:24:43.539Z,4.25
2019-04-14T07:25:43.600Z,4.29
2019-04-14T07:26:43.674Z,4.17
2019-04-14T07:27:43.652Z,4.26
2019-04-14T07:28:55.962Z,4.34
2019-04-14T07:29:44.461Z,4.38
2019-04-14T07:30:43.464Z,4.44
2019-04-14T07:31:43.436Z,4.53
2019-04-14T07:32:43.454Z,4.46
2019-04-14T07:33:43.472Z,4.61
2019-04-14T07:34:43.399Z,4.57
2019-04-14T07:35:43.395Z,4.57
2019-04-14T07:36:43.374Z,4.56
2019-04-14T07:37:43.389Z,4.62
2019-04-14T07:38:43.461Z,4.71
2019-04-14T07:39:43.351Z,4.71
2019-04-14T07:40:43.384Z,4.67
2019-04-14T07:41:43.350Z,4.62
2019-04-14T07:42:43.347Z,4.61
2019-04-14T07:43:43.325Z,4.64
2019-04-14T07:44:43.322Z,4.65
2019-04-14T07:45:43.280Z,4.65
2019-04-14T07:46:43.270Z,4.68
2019-04-14T07:47:43.367Z,4.68
2019-04-14T07:48:43.248Z,4.77
2019-04-14T07:49:43.237Z,4.79
2019-04-14T07:50:43.308Z,4.77
2019-04-14T07:51:43.231Z,4.72
2019-04-14T07:52:43.218Z,4.99
2019-04-14T07:53:43.213Z,4.83
2019-04-14T07:54:43.185Z,4.67
2019-04-14T07:55:43.246Z,4.67
2019-04-14T07:56:43.248Z,4.72
2019-04-14T07:57:43.186Z,4.64
2019-04-14T07:58:43.149Z,4.77
2019-04-14T07:59:43.141Z,4.97
2019-04-14T08:00:43.312Z,4.90
2019-04-14T08:01:43.148Z,4.84
2019-04-14T08:02:43.116Z,4.65
2019-04-14T08:03:43.212Z,4.56
2019-04-14T08:04:43.078Z,4.57
2019-04-14T08:05:43.069Z,4.53
2019-04-14T08:06:43.070Z,4.57
2019-04-14T08:07:43.072Z,4.62
2019-04-14T08:08:43.036Z,4.59
2019-04-14T08:09:43.029Z,4.69
2019-04-14T08:10:43.116Z,4.77
2019-04-14T08:11:43.018Z,4.87
2019-04-14T08:12:42.994Z,4.97
2019-04-14T08:13:43.014Z,5.04
2019-04-14T08:14:42.983Z,5.22
2019-04-14T08:15:42.960Z,5.37
2019-04-14T08:16:43.019Z,5.45
2019-04-14T08:17:43.744Z,5.40
2019-04-14T08:18:42.965Z,5.32
2019-04-14T08:19:42.929Z,5.30
2019-04-14T08:20:42.921Z,5.33
2019-04-14T08:21:42.923Z,5.41
2019-04-14T08:22:42.907Z,5.45
2019-04-14T08:23:42.924Z,5.44
2019-04-14T08:24:42.930Z,5.58
2019-04-14T08:25:42.909Z,5.51
2019-04-14T08:26:42.849Z,5.58
2019-04-14T08:27:42.866Z,5.63
2019-04-14T08:28:42.829Z,5.65
2019-04-14T08:29:42.828Z,5.75
2019-04-14T08:30:42.799Z,5.65
2019-04-14T08:31:42.787Z,5.48
2019-04-14T08:32:42.779Z,5.47
2019-04-14T08:33:42.785Z,5.29
2019-04-14T08:34:42.760Z,5.06
2019-04-14T08:35:42.808Z,5.38
2019-04-14T08:36:42.752Z,5.52
2019-04-14T08:37:42.724Z,5.42
2019-04-14T08:38:42.740Z,5.47
2019-04-14T08:39:42.700Z,5.27
2019-04-14T08:40:42.695Z,5.29
2019-04-14T08:41:42.722Z,5.35
2019-04-14T08:42:42.695Z,5.38
2019-04-14T08:43:42.687Z,5.38
2019-04-14T08:44:42.658Z,5.42
2019-04-14T08:45:42.658Z,5.44
2019-04-14T08:46:42.630Z,5.69
2019-04-14T08:47:42.682Z,5.93
2019-04-14T08:48:42.625Z,5.99
2019-04-14T08:49:42.602Z,6.19
2019-04-14T08:50:42.605Z,6.01
2019-04-14T08:51:42.575Z,5.85
2019-04-14T08:52:42.564Z,5.67
2019-04-14T08:53:42.651Z,5.95
2019-04-14T08:54:42.555Z,6.21
2019-04-14T08:55:42.546Z,6.17
2019-04-14T08:56:42.535Z,6.11
2019-04-14T08:57:42.513Z,6.21
2019-04-14T08:58:42.509Z,6.17
2019-04-14T08:59:42.521Z,6.24
2019-04-14T09:00:42.488Z,6.53
2019-04-14T09:01:42.466Z,6.61
2019-04-14T09:02:42.461Z,6.65
2019-04-14T09:03:42.466Z,6.89
2019-04-14T09:04:42.435Z,6.79
2019-04-14T09:05:42.449Z,6.78
2019-04-14T09:06:42.432Z,6.57
2019-04-14T09:07:42.423Z,6.58
2019-04-14T09:08:42.520Z,6.60
2019-04-14T09:09:42.384Z,6.45
2019-04-14T09:10:42.377Z,6.54
2019-04-14T09:11:42.366Z,6.24
2019-04-14T09:12:42.375Z,6.21
2019-04-14T09:13:42.393Z,6.19
2019-04-14T09:14:42.325Z,6.21
2019-04-14T09:15:42.340Z,6.17
2019-04-14T09:16:42.364Z,6.19
2019-04-14T09:17:42.296Z,6.14
2019-04-14T09:18:42.675Z,6.13
2019-04-14T09:19:42.276Z,6.06
2019-04-14T09:20:51.650Z,5.93
2019-04-14T09:21:43.375Z,5.90
2019-04-14T09:22:42.283Z,5.73
2019-04-14T09:23:42.250Z,5.77
2019-04-14T09:24:42.251Z,5.78
2019-04-14T09:25:42.211Z,5.78
2019-04-14T09:26:42.198Z,5.65
2019-04-14T09:27:42.245Z,5.66
2019-04-14T09:28:42.205Z,5.75
2019-04-14T09:29:42.183Z,5.70
2019-04-14T09:30:42.178Z,5.59
2019-04-14T09:31:42.148Z,5.58
2019-04-14T09:32:42.155Z,5.56
2019-04-14T09:33:42.151Z,5.52
2019-04-14T09:34:42.198Z,5.51
2019-04-14T09:35:42.110Z,5.42
2019-04-14T09:36:42.117Z,5.49
2019-04-14T09:37:42.084Z,5.45
2019-04-14T09:38:42.097Z,5.49
2019-04-14T09:39:42.071Z,5.59
2019-04-14T09:40:42.059Z,5.67
2019-04-14T09:41:42.099Z,5.66
2019-04-14T09:42:42.031Z,5.63
2019-04-14T09:43:42.042Z,5.63
2019-04-14T09:44:42.022Z,5.73
2019-04-14T09:45:42.028Z,5.85
2019-04-14T09:46:42.024Z,5.80
2019-04-14T09:47:42.007Z,5.80
2019-04-14T09:48:43.056Z,5.81
2019-04-14T09:49:41.969Z,5.77
2019-04-14T09:50:41.945Z,5.74
2019-04-14T09:51:41.932Z,5.81
2019-04-14T09:52:41.940Z,5.95
2019-04-14T09:53:41.944Z,5.88
2019-04-14T09:54:41.926Z,5.90
2019-04-14T09:55:41.902Z,5.81
2019-04-14T09:56:41.879Z,5.74
2019-04-14T09:57:41.872Z,5.90
2019-04-14T09:58:41.864Z,5.73
2019-04-14T09:59:41.916Z,5.74
2019-04-14T10:00:41.930Z,5.69
2019-04-14T10:01:41.843Z,5.77
2019-04-14T10:02:41.818Z,5.78
2019-04-14T10:03:41.840Z,5.67
2019-04-14T10:04:41.814Z,5.81
2019-04-14T10:05:41.791Z,5.75
2019-04-14T10:06:41.819Z,5.65
2019-04-14T10:07:41.775Z,5.66
2019-04-14T10:08:41.755Z,5.66
2019-04-14T10:09:41.797Z,5.65
2019-04-14T10:10:41.809Z,5.59
2019-04-14T10:11:48.639Z,5.58
2019-04-14T10:12:42.752Z,5.58
2019-04-14T10:13:41.720Z,5.78
2019-04-14T10:14:41.733Z,5.69
2019-04-14T10:15:41.679Z,5.67
2019-04-14T10:16:41.712Z,5.74
2019-04-14T10:17:41.654Z,5.95
2019-04-14T10:18:41.682Z,5.84
2019-04-14T10:19:41.694Z,5.88
2019-04-14T10:20:41.632Z,5.78
2019-04-14T10:21:41.629Z,5.80
2019-04-14T10:22:41.605Z,5.83
2019-04-14T10:23:41.641Z,5.99
2019-04-14T10:24:41.737Z,5.92
2019-04-14T10:25:41.643Z,5.88
2019-04-14T10:26:41.561Z,5.95
2019-04-14T10:27:41.584Z,5.92
2019-04-14T10:28:41.537Z,6.01
2019-04-14T10:29:41.561Z,6.08
2019-04-14T10:30:41.530Z,6.14
2019-04-14T10:31:41.519Z,6.30
2019-04-14T10:32:41.745Z,6.54
2019-04-14T10:33:41.507Z,6.60
2019-04-14T10:34:41.506Z,6.64
2019-04-14T10:35:41.463Z,6.65
2019-04-14T10:36:41.479Z,6.58
2019-04-14T10:37:41.447Z,6.48
2019-04-14T10:38:42.470Z,6.46
2019-04-14T10:39:41.444Z,6.30
2019-04-14T10:40:41.413Z,6.27
2019-04-14T10:41:41.776Z,6.24
2019-04-14T10:42:41.390Z,6.16
2019-04-14T10:43:41.379Z,6.11
2019-04-14T10:44:41.422Z,6.27
2019-04-14T10:45:41.402Z,6.30
2019-04-14T10:46:41.348Z,6.36
2019-04-14T10:47:41.341Z,6.20
2019-04-14T10:48:41.325Z,6.17
2019-04-14T10:49:41.349Z,6.24
2019-04-14T10:50:41.391Z,6.36
2019-04-14T10:51:41.319Z,6.50
2019-04-14T10:52:41.313Z,6.45
2019-04-14T10:53:41.276Z,6.46
2019-04-14T10:54:41.355Z,6.19
2019-04-14T10:55:41.260Z,6.19
2019-04-14T10:56:41.378Z,6.36
2019-04-14T10:57:41.362Z,6.32
2019-04-14T10:58:41.219Z,6.53
2019-04-14T10:59:41.280Z,6.60
2019-04-14T11:00:41.202Z,6.60
2019-04-14T11:01:41.189Z,6.42
2019-04-14T11:02:41.263Z,6.51
2019-04-14T11:03:41.389Z,6.79
2019-04-14T11:04:41.217Z,6.87
2019-04-14T11:05:41.154Z,6.90
2019-04-14T11:06:41.139Z,6.69
2019-04-14T11:07:41.138Z,6.61
2019-04-14T11:08:41.154Z,6.39
2019-04-14T11:09:41.203Z,6.19
2019-04-14T11:10:41.107Z,6.21
2019-04-14T11:11:41.081Z,6.27
2019-04-14T11:12:41.081Z,6.54
2019-04-14T11:13:41.063Z,6.42
2019-04-14T11:14:41.043Z,6.24
2019-04-14T11:15:41.322Z,6.27
2019-04-14T11:16:41.028Z,6.51
2019-04-14T11:17:41.015Z,6.46
2019-04-14T11:18:41.000Z,6.53
2019-04-14T11:19:41.004Z,6.43
2019-04-14T11:20:40.988Z,6.42
2019-04-14T11:21:42.879Z,6.57
2019-04-14T11:22:40.971Z,6.58
2019-04-14T11:23:41.034Z,6.64
2019-04-14T11:24:40.953Z,6.48
2019-04-14T11:25:40.934Z,6.46
2019-04-14T11:26:40.930Z,6.71
2019-04-14T11:27:40.905Z,6.78
2019-04-14T11:28:40.893Z,6.82
2019-04-14T11:29:40.881Z,6.86
2019-04-14T11:30:40.939Z,6.65
2019-04-14T11:31:40.860Z,6.50
2019-04-14T11:32:40.856Z,6.16
2019-04-14T11:33:40.870Z,6.39
2019-04-14T11:34:40.829Z,6.51
2019-04-14T11:35:40.867Z,6.60
2019-04-14T11:36:40.855Z,6.53
2019-04-14T11:37:40.801Z,6.55
2019-04-14T11:38:40.788Z,6.61
2019-04-14T11:39:40.777Z,6.55
2019-04-14T11:40:40.801Z,6.58
2019-04-14T11:41:40.758Z,6.55
2019-04-14T11:42:51.854Z,6.55
2019-04-14T11:43:41.810Z,6.50
2019-04-14T11:44:40.778Z,6.55
2019-04-14T11:45:40.728Z,6.48
2019-04-14T11:46:40.726Z,6.40
2019-04-14T11:47:40.710Z,6.42
2019-04-14T11:48:40.697Z,6.48
2019-04-14T11:49:40.766Z,6.51
2019-04-14T11:50:40.694Z,6.57
2019-04-14T11:51:40.702Z,6.61
2019-04-14T11:52:40.697Z,6.60
2019-04-14T11:53:40.640Z,6.51
2019-04-14T11:54:40.705Z,6.38
2019-04-14T11:55:40.706Z,6.36
2019-04-14T11:56:40.777Z,6.33
2019-04-14T11:57:40.654Z,6.32
2019-04-14T11:58:40.576Z,6.36
2019-04-14T11:59:40.602Z,6.24
2019-04-14T12:00:40.561Z,6.30
2019-04-14T12:01:40.545Z,6.40
2019-04-14T12:02:40.586Z,6.32
2019-04-14T12:03:40.527Z,6.35
2019-04-14T12:04:40.508Z,6.39
2019-04-14T12:05:40.510Z,6.30
2019-04-14T12:06:40.510Z,6.32
2019-04-14T12:07:40.497Z,6.43
2019-04-14T12:08:40.569Z,6.43
2019-04-14T12:09:40.459Z,6.42
2019-04-14T12:10:40.483Z,6.14
2019-04-14T12:11:40.451Z,6.25
2019-04-14T12:12:40.445Z,6.35
2019-04-14T12:13:40.414Z,6.33
2019-04-14T12:14:40.499Z,6.39
2019-04-14T12:15:40.449Z,6.30
2019-04-14T12:16:40.407Z,6.06
2019-04-14T12:17:40.375Z,5.90
2019-04-14T12:18:40.406Z,5.95
2019-04-14T12:19:40.358Z,6.01
2019-04-14T12:20:40.415Z,5.93
2019-04-14T12:21:40.340Z,5.81
2019-04-14T12:22:40.317Z,5.59
2019-04-14T12:23:40.325Z,5.47
2019-04-14T12:24:40.334Z,5.65
2019-04-14T12:25:40.299Z,5.59
2019-04-14T12:26:40.290Z,5.75
2019-04-14T12:27:40.335Z,5.81
2019-04-14T12:28:40.515Z,5.78
2019-04-14T12:29:41.205Z,5.81
2019-04-14T12:30:40.261Z,5.67
2019-04-14T12:31:40.232Z,5.83
2019-04-14T12:32:40.264Z,5.93
2019-04-14T12:33:40.219Z,6.05
2019-04-14T12:34:40.238Z,6.14
2019-04-14T12:35:40.214Z,6.25
2019-04-14T12:36:40.193Z,6.16
2019-04-14T12:37:40.157Z,6.48
2019-04-14T12:38:40.151Z,6.54
2019-04-14T12:39:40.142Z,6.48
2019-04-14T12:40:40.278Z,6.57
2019-04-14T12:41:40.136Z,6.61
2019-04-14T12:42:40.106Z,6.83
2019-04-14T12:43:40.091Z,7.00
2019-04-14T12:44:40.092Z,7.15
2019-04-14T12:45:40.088Z,7.29
2019-04-14T12:46:40.162Z,7.15
2019-04-14T12:47:40.592Z,6.99
2019-04-14T12:48:40.042Z,6.97
2019-04-14T12:49:40.034Z,7.04
2019-04-14T12:50:40.027Z,7.12
2019-04-14T12:51:40.018Z,7.32
2019-04-14T12:52:40.024Z,7.37
2019-04-14T12:53:39.985Z,7.42
2019-04-14T12:54:39.973Z,7.42
2019-04-14T12:55:39.970Z,7.27
2019-04-14T12:56:39.974Z,7.39
2019-04-14T12:57:39.944Z,7.55
2019-04-14T12:58:39.950Z,7.16
2019-04-14T12:59:39.925Z,7.23
2019-04-14T13:00:39.910Z,7.26
2019-04-14T13:01:39.919Z,6.86
2019-04-14T13:02:39.923Z,7.08
2019-04-14T13:03:41.839Z,7.01
2019-04-14T13:04:39.936Z,6.90
2019-04-14T13:05:39.873Z,6.82
2019-04-14T13:06:39.861Z,6.72
2019-04-14T13:07:39.839Z,6.93
2019-04-14T13:08:39.832Z,6.91
2019-04-14T13:09:39.818Z,6.97
2019-04-14T13:10:39.825Z,7.27
2019-04-14T13:11:39.872Z,7.33
2019-04-14T13:12:39.782Z,7.58
2019-04-14T13:13:39.781Z,7.86
2019-04-14T13:14:39.765Z,8.13
2019-04-14T13:15:39.793Z,8.52
2019-04-14T13:16:39.751Z,8.67
2019-04-14T13:17:39.770Z,8.78
2019-04-14T13:18:39.757Z,8.88
2019-04-14T13:19:39.742Z,8.63
2019-04-14T13:20:39.715Z,8.34
2019-04-14T13:21:40.552Z,8.22
2019-04-14T13:22:39.693Z,8.07
2019-04-14T13:23:39.717Z,8.10
2019-04-14T13:24:39.723Z,8.04
2019-04-14T13:25:39.647Z,7.91
2019-04-14T13:26:39.642Z,7.58
2019-04-14T13:27:39.635Z,7.54